Jamestown, North Dakota
Current Conditions -  °F | °C
As of 3:56 PM on Monday 22 Dec 2014 (Local Time) from KJMS Reporting Station
Unknown Precip Unknown Precip  
Wind Chill: -4°   Ceiling: 400
Heat Index:   Visibility: 10mi
Dew Point:   Wind: 12mph
Humidity: 92%   Direction: 30°NNE
Pressure: 29.5"   Gusts: NA
Location:  46.91°N, 98.71°W
Report Text: KJMS 222156Z AUTO 03010KT 10SM UP OVC004 01/00 A2950 RMK AO2 RAB43E55 SLP005 P0000 T00110000
Loading
Personal Weather Stations






























Interactive Weather Map New forecast layout! Learn more

10-Day Weather Forecast

Advertisements
Track Severe Weather on mobile